Dawson Creek Airport
CYDQ : rendu visible

Aérodrome :











RETROUVEZ-NOUS SUR...

 
LOGIN :

S'inscrire | Disclaimer

   EN    FR    IT 

 









Légende :    VFR   VFR Marginal   IFR   IFR Intensif   IFR Très Intensif
Visi : 
Plafond : 
>= 8 km
>= 3000ft
5 à 8 km
1000 à 3000 ft
1500m à 5 km
500 à 1000 ft
800 à 1500m
200 à 500 ft
< 800m
< 200 ft
Symboles :   Orages  Brouillard  Fortes neiges  Fortes précipitations  Vent > 20 kt






- Altitude de l'aérodrome : 2148 ft
- Code IATA : YDQ


CYDQ - Dawson Creek

DERNIER METAR :
  • 301725Z AUTO 03012KT 6SM -SN FEW014 SCT240 M15/M18 A3009 RMK SLP246

METARs EXPIRÉS :
  • 301716Z AUTO 02013KT 3SM -SN SCT012 M15/M18 A3009 RMK SLP247
  • 301655Z AUTO 02012KT 1SM -SN BKN012 M15/M18 A3010 RMK SLP249
  • 301636Z AUTO 01010KT 1 3/4SM -SN FEW010 BKN019 M15/M18 A3010 RMK SLP251
  • 301619Z AUTO 02010KT 3SM -SN BKN017 M15/M18 A3010 RMK SLP251
  • 301600Z AUTO 02010KT 1 1/4SM -SN OVC012 M15/M18 A3009 RMK VIS VRB 3/4-2 SLP247

TAF AMD TAF CYDQ
Valide du 30 à 17h jusqu'au 31 à 01h UTC


301729Z 3017/3101 04015KT 6SM -SN OVC040
TEMPO 3017/3022 2SM -SN BLSN OVC020
FM302200 03015G25KT 4SM -SN OVC030
TEMPO 3022/3101 1SM -SN BLSN VV010 RMK FCST BASED ON AUTO OBS. NXT FCST BY 301900Z



MET'MAP, la Météo Aéronautique d'un coup d'oeil ! - Copyright ORBIFLY Décembre 2007 - Disclaimer

ORBIFLY MET'MAP TEAM :

Programmation & Développement : Alexandra Zaïnal
Sur une idée originale de : Baudouin d'Aumeries
Assistance à la programmation : Marc-Olivier Méhu
Soutien technique & logistique : Manuel Goepfert

Contact : metmap@orbifly.com




SOURCES & CREDITS :

   NOAA       Earth
Advisory